sensor_id;sensor_type;location;lat;lon;timestamp;temperature;humidity
24176;DHT22;12324;48.146;11.502;2023-05-07T00:01:22;11.90;99.90
24176;DHT22;12324;48.146;11.502;2023-05-07T00:03:49;11.90;99.90
24176;DHT22;12324;48.146;11.502;2023-05-07T00:06:16;11.80;99.90
24176;DHT22;12324;48.146;11.502;2023-05-07T00:08:43;11.80;99.90
24176;DHT22;12324;48.146;11.502;2023-05-07T00:11:10;11.70;99.90
24176;DHT22;12324;48.146;11.502;2023-05-07T00:13:37;11.70;99.90
24176;DHT22;12324;48.146;11.502;2023-05-07T00:16:03;11.70;99.90
24176;DHT22;12324;48.146;11.502;2023-05-07T00:18:31;11.70;99.90
24176;DHT22;12324;48.146;11.502;2023-05-07T00:20:57;11.70;99.90
24176;DHT22;12324;48.146;11.502;2023-05-07T00:23:24;11.70;99.90
24176;DHT22;12324;48.146;11.502;2023-05-07T00:25:51;11.80;99.90
24176;DHT22;12324;48.146;11.502;2023-05-07T00:28:17;11.70;99.90
24176;DHT22;12324;48.146;11.502;2023-05-07T00:30:44;11.70;99.90
24176;DHT22;12324;48.146;11.502;2023-05-07T00:33:11;11.70;99.90
24176;DHT22;12324;48.146;11.502;2023-05-07T00:35:37;11.80;99.90
24176;DHT22;12324;48.146;11.502;2023-05-07T00:38:04;11.70;99.90
24176;DHT22;12324;48.146;11.502;2023-05-07T00:40:31;11.70;99.90
24176;DHT22;12324;48.146;11.502;2023-05-07T00:42:57;11.70;99.90
24176;DHT22;12324;48.146;11.502;2023-05-07T00:45:28;11.70;99.90
24176;DHT22;12324;48.146;11.502;2023-05-07T00:47:56;11.70;99.90
24176;DHT22;12324;48.146;11.502;2023-05-07T00:50:23;11.60;99.90
24176;DHT22;12324;48.146;11.502;2023-05-07T00:52:50;11.70;99.90
24176;DHT22;12324;48.146;11.502;2023-05-07T00:55:17;11.60;99.90
24176;DHT22;12324;48.146;11.502;2023-05-07T00:57:44;11.50;99.90
24176;DHT22;12324;48.146;11.502;2023-05-07T01:00:12;11.60;99.90
24176;DHT22;12324;48.146;11.502;2023-05-07T01:02:40;11.50;99.90
24176;DHT22;12324;48.146;11.502;2023-05-07T01:05:17;11.60;99.90
24176;DHT22;12324;48.146;11.502;2023-05-07T01:07:46;11.60;99.90
24176;DHT22;12324;48.146;11.502;2023-05-07T01:10:14;11.60;99.90
24176;DHT22;12324;48.146;11.502;2023-05-07T01:12:42;11.50;99.90
24176;DHT22;12324;48.146;11.502;2023-05-07T01:15:09;11.60;99.90
24176;DHT22;12324;48.146;11.502;2023-05-07T01:17:41;11.60;99.90
24176;DHT22;12324;48.146;11.502;2023-05-07T01:20:08;11.60;99.90
24176;DHT22;12324;48.146;11.502;2023-05-07T01:22:38;11.60;99.90
24176;DHT22;12324;48.146;11.502;2023-05-07T01:25:06;11.60;99.90
24176;DHT22;12324;48.146;11.502;2023-05-07T01:27:34;11.60;99.90
24176;DHT22;12324;48.146;11.502;2023-05-07T01:30:06;11.60;99.90
24176;DHT22;12324;48.146;11.502;2023-05-07T01:32:41;11.60;99.90
24176;DHT22;12324;48.146;11.502;2023-05-07T01:35:11;11.70;99.90
24176;DHT22;12324;48.146;11.502;2023-05-07T01:37:40;11.70;99.90
24176;DHT22;12324;48.146;11.502;2023-05-07T01:40:08;11.70;99.90
24176;DHT22;12324;48.146;11.502;2023-05-07T01:42:35;11.70;99.90
24176;DHT22;12324;48.146;11.502;2023-05-07T01:45:02;11.70;99.90
24176;DHT22;12324;48.146;11.502;2023-05-07T01:47:30;11.60;99.90
24176;DHT22;12324;48.146;11.502;2023-05-07T01:49:57;11.60;99.90
24176;DHT22;12324;48.146;11.502;2023-05-07T01:52:24;11.60;99.90
24176;DHT22;12324;48.146;11.502;2023-05-07T01:54:51;11.60;99.90
24176;DHT22;12324;48.146;11.502;2023-05-07T01:57:18;11.60;99.90
24176;DHT22;12324;48.146;11.502;2023-05-07T01:59:44;11.50;99.90
24176;DHT22;12324;48.146;11.502;2023-05-07T02:02:11;11.50;99.90
24176;DHT22;12324;48.146;11.502;2023-05-07T02:04:38;11.60;99.90
24176;DHT22;12324;48.146;11.502;2023-05-07T02:07:05;11.60;99.90
24176;DHT22;12324;48.146;11.502;2023-05-07T02:09:31;11.60;99.90
24176;DHT22;12324;48.146;11.502;2023-05-07T02:11:58;11.70;99.90
24176;DHT22;12324;48.146;11.502;2023-05-07T02:14:25;11.70;99.90
24176;DHT22;12324;48.146;11.502;2023-05-07T02:16:52;11.70;99.90
24176;DHT22;12324;48.146;11.502;2023-05-07T02:19:19;11.60;99.90
24176;DHT22;12324;48.146;11.502;2023-05-07T02:21:47;11.60;99.90
24176;DHT22;12324;48.146;11.502;2023-05-07T02:24:14;11.60;99.90
24176;DHT22;12324;48.146;11.502;2023-05-07T02:26:41;11.60;99.90
24176;DHT22;12324;48.146;11.502;2023-05-07T02:29:08;11.60;99.90
24176;DHT22;12324;48.146;11.502;2023-05-07T02:31:34;11.50;99.90
24176;DHT22;12324;48.146;11.502;2023-05-07T02:34:01;11.50;99.90
24176;DHT22;12324;48.146;11.502;2023-05-07T02:36:28;11.60;99.90
24176;DHT22;12324;48.146;11.502;2023-05-07T02:38:55;11.60;99.90
24176;DHT22;12324;48.146;11.502;2023-05-07T02:41:21;11.70;99.90
24176;DHT22;12324;48.146;11.502;2023-05-07T02:43:48;11.70;99.90
24176;DHT22;12324;48.146;11.502;2023-05-07T02:46:15;11.70;99.90
24176;DHT22;12324;48.146;11.502;2023-05-07T02:48:42;11.70;99.90
24176;DHT22;12324;48.146;11.502;2023-05-07T02:51:09;11.60;99.90
24176;DHT22;12324;48.146;11.502;2023-05-07T02:53:36;11.60;99.90
24176;DHT22;12324;48.146;11.502;2023-05-07T02:56:03;11.60;99.90
24176;DHT22;12324;48.146;11.502;2023-05-07T02:58:30;11.60;99.90
24176;DHT22;12324;48.146;11.502;2023-05-07T03:00:56;11.60;99.90
24176;DHT22;12324;48.146;11.502;2023-05-07T03:03:23;11.60;99.90
24176;DHT22;12324;48.146;11.502;2023-05-07T03:05:50;11.50;99.90
24176;DHT22;12324;48.146;11.502;2023-05-07T03:08:17;11.60;99.90
24176;DHT22;12324;48.146;11.502;2023-05-07T03:10:44;11.70;99.90
24176;DHT22;12324;48.146;11.502;2023-05-07T03:13:10;11.70;99.90
24176;DHT22;12324;48.146;11.502;2023-05-07T03:15:37;11.80;99.90
24176;DHT22;12324;48.146;11.502;2023-05-07T03:18:04;11.80;99.90
24176;DHT22;12324;48.146;11.502;2023-05-07T03:20:31;11.80;99.90
24176;DHT22;12324;48.146;11.502;2023-05-07T03:22:58;11.80;99.90
24176;DHT22;12324;48.146;11.502;2023-05-07T03:25:24;11.70;99.90
24176;DHT22;12324;48.146;11.502;2023-05-07T03:27:51;11.60;99.90
24176;DHT22;12324;48.146;11.502;2023-05-07T03:30:18;11.60;99.90
24176;DHT22;12324;48.146;11.502;2023-05-07T03:32:45;11.50;99.90
24176;DHT22;12324;48.146;11.502;2023-05-07T03:35:12;11.50;99.90
24176;DHT22;12324;48.146;11.502;2023-05-07T03:37:39;11.50;99.90
24176;DHT22;12324;48.146;11.502;2023-05-07T03:40:06;11.40;99.90
24176;DHT22;12324;48.146;11.502;2023-05-07T03:42:34;11.40;99.90
24176;DHT22;12324;48.146;11.502;2023-05-07T03:45:01;11.40;99.90
24176;DHT22;12324;48.146;11.502;2023-05-07T03:47:28;11.40;99.90
24176;DHT22;12324;48.146;11.502;2023-05-07T03:49:55;11.30;99.90
24176;DHT22;12324;48.146;11.502;2023-05-07T03:52:22;11.20;99.90
24176;DHT22;12324;48.146;11.502;2023-05-07T03:54:53;11.20;99.90
24176;DHT22;12324;48.146;11.502;2023-05-07T03:57:20;11.20;99.90
24176;DHT22;12324;48.146;11.502;2023-05-07T03:59:46;11.10;99.90
24176;DHT22;12324;48.146;11.502;2023-05-07T04:02:13;11.10;99.90
24176;DHT22;12324;48.146;11.502;2023-05-07T04:04:40;11.20;99.90
24176;DHT22;12324;48.146;11.502;2023-05-07T04:07:06;11.30;99.90
24176;DHT22;12324;48.146;11.502;2023-05-07T04:09:33;11.30;99.90
24176;DHT22;12324;48.146;11.502;2023-05-07T04:12:00;11.20;99.90
24176;DHT22;12324;48.146;11.502;2023-05-07T04:14:27;11.20;99.90
24176;DHT22;12324;48.146;11.502;2023-05-07T04:16:54;11.20;99.90
24176;DHT22;12324;48.146;11.502;2023-05-07T04:19:21;11.30;99.90
24176;DHT22;12324;48.146;11.502;2023-05-07T04:21:47;11.30;99.90
24176;DHT22;12324;48.146;11.502;2023-05-07T04:24:14;11.40;99.90
24176;DHT22;12324;48.146;11.502;2023-05-07T04:26:41;11.40;99.90
24176;DHT22;12324;48.146;11.502;2023-05-07T04:29:08;11.40;99.90
24176;DHT22;12324;48.146;11.502;2023-05-07T04:31:34;11.40;99.90
24176;DHT22;12324;48.146;11.502;2023-05-07T04:34:01;11.40;99.90
24176;DHT22;12324;48.146;11.502;2023-05-07T04:36:28;11.40;99.90
24176;DHT22;12324;48.146;11.502;2023-05-07T04:38:55;11.30;99.90
24176;DHT22;12324;48.146;11.502;2023-05-07T04:41:22;11.30;99.90
24176;DHT22;12324;48.146;11.502;2023-05-07T04:43:48;11.40;99.90
24176;DHT22;12324;48.146;11.502;2023-05-07T04:46:15;11.50;99.90
24176;DHT22;12324;48.146;11.502;2023-05-07T04:48:42;11.40;99.90
24176;DHT22;12324;48.146;11.502;2023-05-07T04:51:09;11.40;99.90
24176;DHT22;12324;48.146;11.502;2023-05-07T04:53:35;11.40;99.90
24176;DHT22;12324;48.146;11.502;2023-05-07T04:56:02;11.40;99.90
24176;DHT22;12324;48.146;11.502;2023-05-07T04:58:29;11.50;99.90
24176;DHT22;12324;48.146;11.502;2023-05-07T05:00:58;11.50;99.90
24176;DHT22;12324;48.146;11.502;2023-05-07T05:03:25;11.60;99.90
24176;DHT22;12324;48.146;11.502;2023-05-07T05:05:52;11.70;99.90
24176;DHT22;12324;48.146;11.502;2023-05-07T05:08:19;11.70;99.90
24176;DHT22;12324;48.146;11.502;2023-05-07T05:10:46;11.70;99.90
24176;DHT22;12324;48.146;11.502;2023-05-07T05:13:15;11.70;99.90
24176;DHT22;12324;48.146;11.502;2023-05-07T05:15:42;11.80;99.90
24176;DHT22;12324;48.146;11.502;2023-05-07T05:18:08;11.90;99.90
24176;DHT22;12324;48.146;11.502;2023-05-07T05:20:35;11.90;99.90
24176;DHT22;12324;48.146;11.502;2023-05-07T05:23:02;12.10;99.90
24176;DHT22;12324;48.146;11.502;2023-05-07T05:50:00;12.20;99.90
24176;DHT22;12324;48.146;11.502;2023-05-07T05:59:49;13.50;99.90
24176;DHT22;12324;48.146;11.502;2023-05-07T06:24:23;13.90;99.90
24176;DHT22;12324;48.146;11.502;2023-05-07T06:26:50;15.10;99.90
24176;DHT22;12324;48.146;11.502;2023-05-07T06:31:44;15.10;99.90
24176;DHT22;12324;48.146;11.502;2023-05-07T06:34:10;15.40;99.90
